sensor_id;sensor_type;location;lat;lon;timestamp;P1;durP1;ratioP1;P2;durP2;ratioP2
1296;SDS011;641;48.492;9.184;2022-09-03T00:00:22;7.27;;;1.70;;
1296;SDS011;641;48.492;9.184;2022-09-03T00:02:56;6.37;;;1.67;;
1296;SDS011;641;48.492;9.184;2022-09-03T00:05:39;7.60;;;2.20;;
1296;SDS011;641;48.492;9.184;2022-09-03T00:08:28;9.77;;;2.00;;
1296;SDS011;641;48.492;9.184;2022-09-03T00:11:02;7.43;;;1.70;;
1296;SDS011;641;48.492;9.184;2022-09-03T00:13:44;6.53;;;1.93;;
1296;SDS011;641;48.492;9.184;2022-09-03T00:16:36;6.97;;;1.93;;
1296;SDS011;641;48.492;9.184;2022-09-03T00:19:23;6.60;;;1.67;;
1296;SDS011;641;48.492;9.184;2022-09-03T00:22:20;7.50;;;2.00;;
1296;SDS011;641;48.492;9.184;2022-09-03T00:24:45;6.00;;;1.67;;
1296;SDS011;641;48.492;9.184;2022-09-03T00:27:24;6.50;;;1.53;;
1296;SDS011;641;48.492;9.184;2022-09-03T00:32:31;9.90;;;1.80;;
1296;SDS011;641;48.492;9.184;2022-09-03T00:35:02;9.53;;;1.90;;
1296;SDS011;641;48.492;9.184;2022-09-03T00:37:30;10.50;;;2.00;;
1296;SDS011;641;48.492;9.184;2022-09-03T00:39:56;6.60;;;1.90;;
1296;SDS011;641;48.492;9.184;2022-09-03T00:47:59;7.90;;;2.13;;
1296;SDS011;641;48.492;9.184;2022-09-03T00:53:48;9.53;;;1.90;;
1296;SDS011;641;48.492;9.184;2022-09-03T00:56:26;8.13;;;1.83;;
1296;SDS011;641;48.492;9.184;2022-09-03T01:01:49;7.37;;;2.17;;
1296;SDS011;641;48.492;9.184;2022-09-03T01:15:10;6.43;;;1.97;;
1296;SDS011;641;48.492;9.184;2022-09-03T01:18:10;6.20;;;1.80;;
1296;SDS011;641;48.492;9.184;2022-09-03T01:20:52;9.40;;;1.60;;
1296;SDS011;641;48.492;9.184;2022-09-03T01:26:51;6.30;;;1.77;;
1296;SDS011;641;48.492;9.184;2022-09-03T01:42:50;7.40;;;1.90;;
1296;SDS011;641;48.492;9.184;2022-09-03T01:48:39;8.20;;;2.13;;
1296;SDS011;641;48.492;9.184;2022-09-03T02:00:08;8.23;;;2.20;;
1296;SDS011;641;48.492;9.184;2022-09-03T02:02:39;6.57;;;2.07;;
1296;SDS011;641;48.492;9.184;2022-09-03T02:05:12;7.40;;;2.30;;
1296;SDS011;641;48.492;9.184;2022-09-03T02:07:43;8.20;;;2.30;;
1296;SDS011;641;48.492;9.184;2022-09-03T02:10:18;12.60;;;2.40;;
1296;SDS011;641;48.492;9.184;2022-09-03T02:12:56;6.90;;;2.10;;
1296;SDS011;641;48.492;9.184;2022-09-03T02:15:26;6.50;;;2.03;;
1296;SDS011;641;48.492;9.184;2022-09-03T02:17:53;7.50;;;2.37;;
1296;SDS011;641;48.492;9.184;2022-09-03T02:20:24;6.93;;;1.77;;
1296;SDS011;641;48.492;9.184;2022-09-03T02:22:52;7.13;;;1.73;;
1296;SDS011;641;48.492;9.184;2022-09-03T02:25:18;7.73;;;2.30;;
1296;SDS011;641;48.492;9.184;2022-09-03T02:27:47;9.13;;;2.40;;
1296;SDS011;641;48.492;9.184;2022-09-03T02:30:13;6.33;;;2.10;;
1296;SDS011;641;48.492;9.184;2022-09-03T02:32:39;7.03;;;2.10;;
1296;SDS011;641;48.492;9.184;2022-09-03T02:35:05;7.40;;;2.00;;
1296;SDS011;641;48.492;9.184;2022-09-03T02:37:31;6.90;;;2.10;;
1296;SDS011;641;48.492;9.184;2022-09-03T02:39:56;8.33;;;2.70;;
1296;SDS011;641;48.492;9.184;2022-09-03T02:42:22;7.43;;;2.00;;
1296;SDS011;641;48.492;9.184;2022-09-03T02:44:54;10.80;;;2.30;;
1296;SDS011;641;48.492;9.184;2022-09-03T02:47:24;7.37;;;2.13;;
1296;SDS011;641;48.492;9.184;2022-09-03T02:49:55;7.20;;;2.23;;
1296;SDS011;641;48.492;9.184;2022-09-03T02:52:20;8.83;;;3.43;;
1296;SDS011;641;48.492;9.184;2022-09-03T02:54:46;7.43;;;2.47;;
1296;SDS011;641;48.492;9.184;2022-09-03T02:57:13;8.70;;;2.60;;
1296;SDS011;641;48.492;9.184;2022-09-03T02:59:40;9.37;;;2.53;;
1296;SDS011;641;48.492;9.184;2022-09-03T03:02:10;7.70;;;2.70;;
1296;SDS011;641;48.492;9.184;2022-09-03T03:04:37;7.83;;;2.43;;
1296;SDS011;641;48.492;9.184;2022-09-03T03:07:04;7.27;;;2.53;;
1296;SDS011;641;48.492;9.184;2022-09-03T03:09:30;8.47;;;2.60;;
1296;SDS011;641;48.492;9.184;2022-09-03T03:11:56;8.87;;;3.17;;
1296;SDS011;641;48.492;9.184;2022-09-03T03:14:21;9.33;;;2.50;;
1296;SDS011;641;48.492;9.184;2022-09-03T03:16:47;7.13;;;2.63;;
1296;SDS011;641;48.492;9.184;2022-09-03T03:19:13;8.60;;;2.43;;
1296;SDS011;641;48.492;9.184;2022-09-03T03:21:39;9.00;;;2.90;;
1296;SDS011;641;48.492;9.184;2022-09-03T03:24:05;7.07;;;2.70;;
1296;SDS011;641;48.492;9.184;2022-09-03T03:26:31;8.63;;;2.40;;
1296;SDS011;641;48.492;9.184;2022-09-03T03:28:58;10.73;;;2.70;;
1296;SDS011;641;48.492;9.184;2022-09-03T03:31:25;7.33;;;2.77;;
1296;SDS011;641;48.492;9.184;2022-09-03T03:33:55;7.67;;;2.70;;
1296;SDS011;641;48.492;9.184;2022-09-03T03:36:23;7.90;;;2.73;;
1296;SDS011;641;48.492;9.184;2022-09-03T03:38:51;11.70;;;2.80;;
1296;SDS011;641;48.492;9.184;2022-09-03T03:41:21;9.13;;;2.90;;
1296;SDS011;641;48.492;9.184;2022-09-03T03:43:51;8.07;;;3.00;;
1296;SDS011;641;48.492;9.184;2022-09-03T03:46:22;7.23;;;2.80;;
1296;SDS011;641;48.492;9.184;2022-09-03T03:48:49;7.40;;;2.50;;
1296;SDS011;641;48.492;9.184;2022-09-03T03:51:15;7.60;;;2.47;;
1296;SDS011;641;48.492;9.184;2022-09-03T03:53:41;8.57;;;3.20;;
1296;SDS011;641;48.492;9.184;2022-09-03T03:56:08;10.50;;;2.90;;
1296;SDS011;641;48.492;9.184;2022-09-03T03:58:36;10.17;;;2.80;;
1296;SDS011;641;48.492;9.184;2022-09-03T04:01:07;8.30;;;2.50;;
1296;SDS011;641;48.492;9.184;2022-09-03T04:03:35;9.23;;;2.63;;
1296;SDS011;641;48.492;9.184;2022-09-03T04:06:01;7.20;;;2.63;;
1296;SDS011;641;48.492;9.184;2022-09-03T04:08:28;7.90;;;3.20;;
1296;SDS011;641;48.492;9.184;2022-09-03T04:10:58;7.57;;;2.97;;
1296;SDS011;641;48.492;9.184;2022-09-03T04:13:28;11.20;;;3.03;;
1296;SDS011;641;48.492;9.184;2022-09-03T04:16:06;8.70;;;2.67;;
1296;SDS011;641;48.492;9.184;2022-09-03T04:18:34;7.80;;;2.60;;
1296;SDS011;641;48.492;9.184;2022-09-03T04:21:01;8.00;;;3.00;;
1296;SDS011;641;48.492;9.184;2022-09-03T04:23:38;9.13;;;3.00;;
1296;SDS011;641;48.492;9.184;2022-09-03T04:26:06;7.40;;;2.87;;
1296;SDS011;641;48.492;9.184;2022-09-03T04:28:33;9.20;;;2.70;;
1296;SDS011;641;48.492;9.184;2022-09-03T04:31:00;12.03;;;4.00;;
1296;SDS011;641;48.492;9.184;2022-09-03T04:33:31;7.90;;;2.63;;
1296;SDS011;641;48.492;9.184;2022-09-03T04:38:32;7.90;;;2.67;;
1296;SDS011;641;48.492;9.184;2022-09-03T04:40:59;9.77;;;3.10;;
1296;SDS011;641;48.492;9.184;2022-09-03T04:43:25;9.10;;;2.43;;
1296;SDS011;641;48.492;9.184;2022-09-03T04:45:54;12.23;;;3.07;;
1296;SDS011;641;48.492;9.184;2022-09-03T04:48:22;7.53;;;2.70;;
1296;SDS011;641;48.492;9.184;2022-09-03T04:50:47;7.07;;;2.50;;
1296;SDS011;641;48.492;9.184;2022-09-03T04:53:13;9.87;;;2.60;;
1296;SDS011;641;48.492;9.184;2022-09-03T04:55:38;9.93;;;3.13;;
1296;SDS011;641;48.492;9.184;2022-09-03T04:58:04;7.57;;;3.17;;
1296;SDS011;641;48.492;9.184;2022-09-03T05:00:31;7.97;;;2.97;;
1296;SDS011;641;48.492;9.184;2022-09-03T05:03:00;7.30;;;2.50;;
1296;SDS011;641;48.492;9.184;2022-09-03T05:05:29;9.30;;;3.60;;
1296;SDS011;641;48.492;9.184;2022-09-03T05:07:58;18.53;;;10.00;;
1296;SDS011;641;48.492;9.184;2022-09-03T05:10:27;18.07;;;11.33;;
1296;SDS011;641;48.492;9.184;2022-09-03T05:15:29;20.60;;;11.57;;
1296;SDS011;641;48.492;9.184;2022-09-03T05:17:56;17.90;;;10.70;;
1296;SDS011;641;48.492;9.184;2022-09-03T05:20:23;18.93;;;7.90;;
1296;SDS011;641;48.492;9.184;2022-09-03T05:22:49;12.80;;;6.70;;
1296;SDS011;641;48.492;9.184;2022-09-03T05:25:15;19.10;;;8.70;;
1296;SDS011;641;48.492;9.184;2022-09-03T05:27:41;21.80;;;8.33;;
1296;SDS011;641;48.492;9.184;2022-09-03T05:30:07;22.50;;;8.50;;
1296;SDS011;641;48.492;9.184;2022-09-03T05:32:33;12.90;;;6.40;;
1296;SDS011;641;48.492;9.184;2022-09-03T05:34:59;16.30;;;7.90;;
1296;SDS011;641;48.492;9.184;2022-09-03T05:37:24;13.77;;;7.00;;
1296;SDS011;641;48.492;9.184;2022-09-03T05:39:50;10.80;;;5.57;;
1296;SDS011;641;48.492;9.184;2022-09-03T05:42:15;12.53;;;6.70;;
1296;SDS011;641;48.492;9.184;2022-09-03T05:44:41;31.13;;;6.27;;
1296;SDS011;641;48.492;9.184;2022-09-03T05:47:08;10.70;;;5.03;;
1296;SDS011;641;48.492;9.184;2022-09-03T05:49:34;10.03;;;4.93;;
1296;SDS011;641;48.492;9.184;2022-09-03T05:51:59;13.33;;;4.87;;
1296;SDS011;641;48.492;9.184;2022-09-03T05:54:25;12.53;;;5.87;;
1296;SDS011;641;48.492;9.184;2022-09-03T05:56:51;10.57;;;4.63;;
1296;SDS011;641;48.492;9.184;2022-09-03T05:59:17;12.67;;;4.60;;
1296;SDS011;641;48.492;9.184;2022-09-03T06:01:44;11.47;;;4.13;;
1296;SDS011;641;48.492;9.184;2022-09-03T06:04:11;10.60;;;4.43;;
1296;SDS011;641;48.492;9.184;2022-09-03T06:06:39;11.87;;;4.70;;
1296;SDS011;641;48.492;9.184;2022-09-03T06:09:09;11.10;;;5.73;;
1296;SDS011;641;48.492;9.184;2022-09-03T06:11:41;10.90;;;5.27;;
1296;SDS011;641;48.492;9.184;2022-09-03T06:14:07;9.60;;;4.80;;
1296;SDS011;641;48.492;9.184;2022-09-03T06:16:36;11.40;;;5.17;;
1296;SDS011;641;48.492;9.184;2022-09-03T06:19:04;12.73;;;5.30;;
1296;SDS011;641;48.492;9.184;2022-09-03T06:21:38;11.10;;;5.27;;
1296;SDS011;641;48.492;9.184;2022-09-03T06:24:10;11.47;;;4.23;;
1296;SDS011;641;48.492;9.184;2022-09-03T06:26:37;10.30;;;4.53;;
1296;SDS011;641;48.492;9.184;2022-09-03T06:29:04;9.60;;;4.00;;
1296;SDS011;641;48.492;9.184;2022-09-03T06:31:29;8.67;;;3.60;;
1296;SDS011;641;48.492;9.184;2022-09-03T06:33:55;9.00;;;3.50;;
1296;SDS011;641;48.492;9.184;2022-09-03T06:36:21;9.70;;;3.70;;
1296;SDS011;641;48.492;9.184;2022-09-03T06:38:50;8.30;;;3.60;;
1296;SDS011;641;48.492;9.184;2022-09-03T06:41:18;9.20;;;3.57;;
1296;SDS011;641;48.492;9.184;2022-09-03T06:43:45;11.17;;;4.00;;
1296;SDS011;641;48.492;9.184;2022-09-03T06:46:21;10.60;;;3.77;;
1296;SDS011;641;48.492;9.184;2022-09-03T06:48:47;10.10;;;3.80;;
1296;SDS011;641;48.492;9.184;2022-09-03T06:51:25;11.30;;;4.30;;
1296;SDS011;641;48.492;9.184;2022-09-03T06:53:52;9.80;;;3.90;;
1296;SDS011;641;48.492;9.184;2022-09-03T06:56:23;10.97;;;4.03;;
1296;SDS011;641;48.492;9.184;2022-09-03T06:58:52;8.83;;;4.30;;
1296;SDS011;641;48.492;9.184;2022-09-03T07:01:20;10.20;;;3.90;;
1296;SDS011;641;48.492;9.184;2022-09-03T07:03:51;8.20;;;3.50;;
1296;SDS011;641;48.492;9.184;2022-09-03T07:06:28;8.17;;;3.47;;
1296;SDS011;641;48.492;9.184;2022-09-03T07:08:56;10.27;;;3.80;;
1296;SDS011;641;48.492;9.184;2022-09-03T07:11:24;9.80;;;4.20;;
1296;SDS011;641;48.492;9.184;2022-09-03T07:13:52;12.60;;;4.70;;
1296;SDS011;641;48.492;9.184;2022-09-03T07:16:22;11.30;;;4.33;;
1296;SDS011;641;48.492;9.184;2022-09-03T07:18:52;12.70;;;6.47;;
1296;SDS011;641;48.492;9.184;2022-09-03T07:21:28;9.57;;;4.93;;
1296;SDS011;641;48.492;9.184;2022-09-03T07:23:55;12.50;;;4.90;;
1296;SDS011;641;48.492;9.184;2022-09-03T07:26:22;10.87;;;4.77;;
1296;SDS011;641;48.492;9.184;2022-09-03T07:28:50;10.20;;;5.10;;
1296;SDS011;641;48.492;9.184;2022-09-03T07:31:22;9.20;;;4.53;;
1296;SDS011;641;48.492;9.184;2022-09-03T07:33:50;16.20;;;7.60;;
1296;SDS011;641;48.492;9.184;2022-09-03T07:36:23;12.13;;;5.50;;
1296;SDS011;641;48.492;9.184;2022-09-03T07:38:50;10.83;;;5.20;;
1296;SDS011;641;48.492;9.184;2022-09-03T07:41:18;12.00;;;5.60;;
1296;SDS011;641;48.492;9.184;2022-09-03T07:43:44;10.60;;;4.70;;
1296;SDS011;641;48.492;9.184;2022-09-03T07:46:16;10.07;;;4.97;;
1296;SDS011;641;48.492;9.184;2022-09-03T07:48:51;14.20;;;5.30;;
1296;SDS011;641;48.492;9.184;2022-09-03T07:51:18;8.97;;;4.13;;
1296;SDS011;641;48.492;9.184;2022-09-03T07:53:45;9.57;;;4.67;;
1296;SDS011;641;48.492;9.184;2022-09-03T07:56:12;11.30;;;5.07;;
1296;SDS011;641;48.492;9.184;2022-09-03T07:58:39;12.67;;;5.10;;
1296;SDS011;641;48.492;9.184;2022-09-03T08:01:10;11.80;;;4.30;;
1296;SDS011;641;48.492;9.184;2022-09-03T08:03:38;9.63;;;3.80;;
1296;SDS011;641;48.492;9.184;2022-09-03T08:06:07;9.20;;;4.07;;
1296;SDS011;641;48.492;9.184;2022-09-03T08:08:33;9.10;;;4.10;;
1296;SDS011;641;48.492;9.184;2022-09-03T08:11:03;8.80;;;4.23;;
1296;SDS011;641;48.492;9.184;2022-09-03T08:13:43;10.97;;;4.17;;
1296;SDS011;641;48.492;9.184;2022-09-03T08:16:14;8.67;;;4.17;;
1296;SDS011;641;48.492;9.184;2022-09-03T08:18:45;13.23;;;4.60;;
1296;SDS011;641;48.492;9.184;2022-09-03T08:21:15;8.40;;;4.10;;
1296;SDS011;641;48.492;9.184;2022-09-03T08:23:43;11.17;;;4.77;;
1296;SDS011;641;48.492;9.184;2022-09-03T08:26:10;11.17;;;4.43;;
1296;SDS011;641;48.492;9.184;2022-09-03T08:28:37;12.23;;;3.90;;
1296;SDS011;641;48.492;9.184;2022-09-03T08:31:06;11.00;;;3.93;;
1296;SDS011;641;48.492;9.184;2022-09-03T08:33:36;9.30;;;4.30;;
1296;SDS011;641;48.492;9.184;2022-09-03T08:36:03;10.20;;;4.43;;
1296;SDS011;641;48.492;9.184;2022-09-03T08:38:31;11.40;;;3.87;;
1296;SDS011;641;48.492;9.184;2022-09-03T08:41:04;9.03;;;3.70;;
1296;SDS011;641;48.492;9.184;2022-09-03T08:43:53;8.57;;;3.87;;
1296;SDS011;641;48.492;9.184;2022-09-03T08:46:23;9.47;;;3.70;;
1296;SDS011;641;48.492;9.184;2022-09-03T08:48:51;8.27;;;3.50;;
1296;SDS011;641;48.492;9.184;2022-09-03T08:51:18;9.50;;;3.90;;
1296;SDS011;641;48.492;9.184;2022-09-03T08:53:48;8.40;;;3.63;;
1296;SDS011;641;48.492;9.184;2022-09-03T08:56:29;13.37;;;4.03;;
1296;SDS011;641;48.492;9.184;2022-09-03T08:58:56;10.50;;;3.37;;
1296;SDS011;641;48.492;9.184;2022-09-03T09:01:25;8.80;;;4.20;;
1296;SDS011;641;48.492;9.184;2022-09-03T09:04:23;9.07;;;4.40;;
1296;SDS011;641;48.492;9.184;2022-09-03T09:06:53;9.10;;;3.70;;
1296;SDS011;641;48.492;9.184;2022-09-03T09:09:33;11.17;;;3.60;;
1296;SDS011;641;48.492;9.184;2022-09-03T09:22:40;9.77;;;3.23;;
1296;SDS011;641;48.492;9.184;2022-09-03T09:25:15;7.93;;;2.87;;
1296;SDS011;641;48.492;9.184;2022-09-03T09:28:00;7.93;;;3.20;;
1296;SDS011;641;48.492;9.184;2022-09-03T09:30:28;8.40;;;3.20;;
1296;SDS011;641;48.492;9.184;2022-09-03T09:32:55;8.10;;;3.03;;
1296;SDS011;641;48.492;9.184;2022-09-03T09:35:21;9.57;;;3.30;;
1296;SDS011;641;48.492;9.184;2022-09-03T09:40:48;9.30;;;3.27;;
1296;SDS011;641;48.492;9.184;2022-09-03T09:45:46;7.03;;;2.63;;
1296;SDS011;641;48.492;9.184;2022-09-03T09:48:24;9.43;;;3.20;;
1296;SDS011;641;48.492;9.184;2022-09-03T09:51:11;10.70;;;3.17;;
1296;SDS011;641;48.492;9.184;2022-09-03T09:53:41;7.57;;;2.97;;
1296;SDS011;641;48.492;9.184;2022-09-03T09:56:08;8.00;;;2.50;;
1296;SDS011;641;48.492;9.184;2022-09-03T09:58:48;8.97;;;2.80;;
1296;SDS011;641;48.492;9.184;2022-09-03T10:01:19;7.80;;;2.60;;
1296;SDS011;641;48.492;9.184;2022-09-03T10:03:57;8.63;;;3.00;;
1296;SDS011;641;48.492;9.184;2022-09-03T10:06:25;7.43;;;2.30;;
1296;SDS011;641;48.492;9.184;2022-09-03T10:11:43;7.77;;;2.57;;
1296;SDS011;641;48.492;9.184;2022-09-03T10:14:23;7.67;;;2.70;;
1296;SDS011;641;48.492;9.184;2022-09-03T10:16:59;8.50;;;3.03;;
1296;SDS011;641;48.492;9.184;2022-09-03T10:19:51;7.33;;;2.60;;
1296;SDS011;641;48.492;9.184;2022-09-03T10:23:12;8.10;;;2.97;;
1296;SDS011;641;48.492;9.184;2022-09-03T10:28:17;7.40;;;3.07;;
1296;SDS011;641;48.492;9.184;2022-09-03T10:33:34;7.67;;;2.67;;
1296;SDS011;641;48.492;9.184;2022-09-03T10:36:27;7.00;;;2.70;;
1296;SDS011;641;48.492;9.184;2022-09-03T10:41:51;7.73;;;2.97;;
1296;SDS011;641;48.492;9.184;2022-09-03T10:50:02;9.27;;;2.70;;
1296;SDS011;641;48.492;9.184;2022-09-03T10:55:39;8.33;;;3.30;;
1296;SDS011;641;48.492;9.184;2022-09-03T11:06:42;7.33;;;2.90;;
1296;SDS011;641;48.492;9.184;2022-09-03T11:09:19;8.27;;;3.50;;
1296;SDS011;641;48.492;9.184;2022-09-03T11:11:59;9.30;;;2.87;;
1296;SDS011;641;48.492;9.184;2022-09-03T11:17:15;7.70;;;3.20;;
1296;SDS011;641;48.492;9.184;2022-09-03T11:19:51;7.07;;;2.67;;
1296;SDS011;641;48.492;9.184;2022-09-03T11:22:24;8.10;;;2.80;;
1296;SDS011;641;48.492;9.184;2022-09-03T11:24:56;9.70;;;3.80;;
1296;SDS011;641;48.492;9.184;2022-09-03T11:27:48;8.70;;;3.30;;
1296;SDS011;641;48.492;9.184;2022-09-03T11:30:47;8.03;;;3.37;;
1296;SDS011;641;48.492;9.184;2022-09-03T11:33:24;8.03;;;3.40;;
1296;SDS011;641;48.492;9.184;2022-09-03T11:35:56;9.07;;;3.20;;
1296;SDS011;641;48.492;9.184;2022-09-03T11:38:27;8.50;;;2.90;;
1296;SDS011;641;48.492;9.184;2022-09-03T11:41:00;8.10;;;2.90;;
1296;SDS011;641;48.492;9.184;2022-09-03T11:43:41;10.53;;;2.87;;
1296;SDS011;641;48.492;9.184;2022-09-03T11:48:53;11.60;;;2.13;;
1296;SDS011;641;48.492;9.184;2022-09-03T11:51:35;9.17;;;1.80;;
1296;SDS011;641;48.492;9.184;2022-09-03T11:56:30;6.47;;;1.47;;
1296;SDS011;641;48.492;9.184;2022-09-03T12:01:38;8.40;;;1.77;;
1296;SDS011;641;48.492;9.184;2022-09-03T12:04:17;9.70;;;1.60;;
1296;SDS011;641;48.492;9.184;2022-09-03T12:09:50;6.60;;;1.20;;
1296;SDS011;641;48.492;9.184;2022-09-03T12:12:29;11.30;;;2.50;;
1296;SDS011;641;48.492;9.184;2022-09-03T12:18:10;11.50;;;1.60;;
1296;SDS011;641;48.492;9.184;2022-09-03T12:20:43;7.83;;;1.60;;
1296;SDS011;641;48.492;9.184;2022-09-03T12:23:09;7.80;;;1.97;;
1296;SDS011;641;48.492;9.184;2022-09-03T12:25:43;9.10;;;1.77;;
1296;SDS011;641;48.492;9.184;2022-09-03T12:28:16;8.97;;;1.70;;
1296;SDS011;641;48.492;9.184;2022-09-03T12:30:47;9.70;;;2.10;;
1296;SDS011;641;48.492;9.184;2022-09-03T12:33:17;11.03;;;1.80;;
1296;SDS011;641;48.492;9.184;2022-09-03T12:35:43;7.90;;;1.43;;
1296;SDS011;641;48.492;9.184;2022-09-03T12:38:24;7.50;;;1.60;;
1296;SDS011;641;48.492;9.184;2022-09-03T12:40:50;6.00;;;1.23;;
1296;SDS011;641;48.492;9.184;2022-09-03T12:43:17;8.83;;;1.30;;
1296;SDS011;641;48.492;9.184;2022-09-03T12:45:47;6.50;;;1.33;;
1296;SDS011;641;48.492;9.184;2022-09-03T12:48:15;6.57;;;0.90;;
1296;SDS011;641;48.492;9.184;2022-09-03T12:50:42;6.70;;;1.50;;
1296;SDS011;641;48.492;9.184;2022-09-03T12:53:13;8.00;;;2.57;;
1296;SDS011;641;48.492;9.184;2022-09-03T12:55:52;10.57;;;3.67;;
1296;SDS011;641;48.492;9.184;2022-09-03T13:00:55;10.87;;;1.73;;
1296;SDS011;641;48.492;9.184;2022-09-03T13:03:32;8.00;;;2.47;;
1296;SDS011;641;48.492;9.184;2022-09-03T13:06:22;9.50;;;1.90;;
1296;SDS011;641;48.492;9.184;2022-09-03T13:08:54;6.47;;;1.53;;
1296;SDS011;641;48.492;9.184;2022-09-03T13:11:24;7.40;;;1.97;;
1296;SDS011;641;48.492;9.184;2022-09-03T13:13:52;6.77;;;1.50;;
1296;SDS011;641;48.492;9.184;2022-09-03T13:19:08;9.67;;;2.00;;
1296;SDS011;641;48.492;9.184;2022-09-03T13:40:25;8.13;;;1.13;;
1296;SDS011;641;48.492;9.184;2022-09-03T13:43:06;7.50;;;1.40;;
1296;SDS011;641;48.492;9.184;2022-09-03T13:48:26;7.87;;;2.00;;
1296;SDS011;641;48.492;9.184;2022-09-03T13:51:26;7.33;;;1.20;;
1296;SDS011;641;48.492;9.184;2022-09-03T13:54:01;6.60;;;1.20;;
1296;SDS011;641;48.492;9.184;2022-09-03T14:00:04;6.83;;;1.50;;
1296;SDS011;641;48.492;9.184;2022-09-03T14:02:49;5.73;;;0.90;;
1296;SDS011;641;48.492;9.184;2022-09-03T14:07:53;7.83;;;1.10;;
1296;SDS011;641;48.492;9.184;2022-09-03T14:15:51;5.47;;;0.90;;
1296;SDS011;641;48.492;9.184;2022-09-03T14:26:49;6.10;;;0.87;;
1296;SDS011;641;48.492;9.184;2022-09-03T14:29:31;6.30;;;0.87;;
1296;SDS011;641;48.492;9.184;2022-09-03T14:40:29;5.80;;;0.90;;
1296;SDS011;641;48.492;9.184;2022-09-03T14:48:31;6.73;;;1.00;;
1296;SDS011;641;48.492;9.184;2022-09-03T14:56:45;6.03;;;0.80;;
1296;SDS011;641;48.492;9.184;2022-09-03T14:59:21;5.70;;;0.97;;
1296;SDS011;641;48.492;9.184;2022-09-03T15:13:20;6.20;;;1.00;;
1296;SDS011;641;48.492;9.184;2022-09-03T15:16:04;6.87;;;1.00;;
1296;SDS011;641;48.492;9.184;2022-09-03T15:32:40;5.70;;;1.00;;
1296;SDS011;641;48.492;9.184;2022-09-03T15:38:02;6.40;;;1.10;;
1296;SDS011;641;48.492;9.184;2022-09-03T15:40:46;6.30;;;1.13;;
1296;SDS011;641;48.492;9.184;2022-09-03T15:43:20;6.47;;;1.07;;
1296;SDS011;641;48.492;9.184;2022-09-03T15:45:53;6.00;;;1.20;;
1296;SDS011;641;48.492;9.184;2022-09-03T15:53:48;6.93;;;1.30;;
1296;SDS011;641;48.492;9.184;2022-09-03T16:01:58;5.80;;;0.80;;
1296;SDS011;641;48.492;9.184;2022-09-03T16:07:25;6.67;;;1.50;;
1296;SDS011;641;48.492;9.184;2022-09-03T16:15:29;6.40;;;1.00;;
1296;SDS011;641;48.492;9.184;2022-09-03T16:18:10;6.97;;;1.40;;
1296;SDS011;641;48.492;9.184;2022-09-03T16:20:42;7.17;;;1.30;;
1296;SDS011;641;48.492;9.184;2022-09-03T16:23:22;5.57;;;0.90;;
1296;SDS011;641;48.492;9.184;2022-09-03T16:26:03;6.33;;;1.00;;
1296;SDS011;641;48.492;9.184;2022-09-03T16:28:44;6.00;;;1.20;;
1296;SDS011;641;48.492;9.184;2022-09-03T16:31:28;6.53;;;1.20;;
1296;SDS011;641;48.492;9.184;2022-09-03T16:34:32;6.20;;;1.10;;
1296;SDS011;641;48.492;9.184;2022-09-03T16:40:13;9.70;;;1.77;;
1296;SDS011;641;48.492;9.184;2022-09-03T16:43:04;7.13;;;1.50;;
1296;SDS011;641;48.492;9.184;2022-09-03T16:45:56;7.10;;;1.40;;
1296;SDS011;641;48.492;9.184;2022-09-03T16:48:49;7.30;;;1.23;;
1296;SDS011;641;48.492;9.184;2022-09-03T16:51:39;7.30;;;1.57;;
1296;SDS011;641;48.492;9.184;2022-09-03T17:06:07;9.37;;;1.70;;
1296;SDS011;641;48.492;9.184;2022-09-03T17:19:42;6.40;;;1.30;;
1296;SDS011;641;48.492;9.184;2022-09-03T17:25:07;6.77;;;1.80;;
1296;SDS011;641;48.492;9.184;2022-09-03T17:39:52;6.30;;;1.53;;
1296;SDS011;641;48.492;9.184;2022-09-03T17:45:38;8.73;;;1.90;;
1296;SDS011;641;48.492;9.184;2022-09-03T17:51:15;8.53;;;2.27;;
1296;SDS011;641;48.492;9.184;2022-09-03T18:02:38;6.50;;;1.47;;
1296;SDS011;641;48.492;9.184;2022-09-03T18:08:21;8.83;;;1.57;;
1296;SDS011;641;48.492;9.184;2022-09-03T18:25:43;7.53;;;1.60;;
1296;SDS011;641;48.492;9.184;2022-09-03T18:31:54;7.97;;;1.80;;
1296;SDS011;641;48.492;9.184;2022-09-03T18:34:38;8.23;;;1.80;;
1296;SDS011;641;48.492;9.184;2022-09-03T18:37:32;8.20;;;2.00;;
1296;SDS011;641;48.492;9.184;2022-09-03T18:40:23;10.10;;;2.53;;
1296;SDS011;641;48.492;9.184;2022-09-03T18:46:27;6.63;;;1.57;;
1296;SDS011;641;48.492;9.184;2022-09-03T18:49:43;7.90;;;1.97;;
1296;SDS011;641;48.492;9.184;2022-09-03T18:52:44;6.37;;;1.60;;
1296;SDS011;641;48.492;9.184;2022-09-03T18:56:14;6.60;;;1.50;;
1296;SDS011;641;48.492;9.184;2022-09-03T19:02:37;6.47;;;1.60;;
1296;SDS011;641;48.492;9.184;2022-09-03T19:05:26;7.07;;;1.63;;
1296;SDS011;641;48.492;9.184;2022-09-03T19:08:31;6.13;;;1.40;;
1296;SDS011;641;48.492;9.184;2022-09-03T19:11:31;6.27;;;1.50;;
1296;SDS011;641;48.492;9.184;2022-09-03T19:14:28;6.70;;;1.60;;
1296;SDS011;641;48.492;9.184;2022-09-03T19:20:57;6.43;;;1.40;;
1296;SDS011;641;48.492;9.184;2022-09-03T19:23:53;6.50;;;1.50;;
1296;SDS011;641;48.492;9.184;2022-09-03T19:26:43;6.90;;;1.50;;
1296;SDS011;641;48.492;9.184;2022-09-03T19:29:59;6.30;;;1.47;;
1296;SDS011;641;48.492;9.184;2022-09-03T19:38:57;6.50;;;1.47;;
1296;SDS011;641;48.492;9.184;2022-09-03T19:48:21;7.57;;;1.80;;
1296;SDS011;641;48.492;9.184;2022-09-03T19:51:18;8.37;;;1.83;;
1296;SDS011;641;48.492;9.184;2022-09-03T19:54:04;9.10;;;2.47;;
1296;SDS011;641;48.492;9.184;2022-09-03T19:56:50;7.67;;;1.87;;
1296;SDS011;641;48.492;9.184;2022-09-03T19:59:38;7.10;;;1.97;;
1296;SDS011;641;48.492;9.184;2022-09-03T20:02:23;7.10;;;1.80;;
1296;SDS011;641;48.492;9.184;2022-09-03T20:05:18;9.27;;;1.70;;
1296;SDS011;641;48.492;9.184;2022-09-03T20:08:04;10.10;;;1.80;;
1296;SDS011;641;48.492;9.184;2022-09-03T20:10:51;6.40;;;1.73;;
1296;SDS011;641;48.492;9.184;2022-09-03T20:13:20;7.23;;;1.93;;
1296;SDS011;641;48.492;9.184;2022-09-03T20:21:24;6.30;;;1.50;;
1296;SDS011;641;48.492;9.184;2022-09-03T20:30:15;6.20;;;1.73;;
1296;SDS011;641;48.492;9.184;2022-09-03T20:40:54;8.50;;;1.97;;
1296;SDS011;641;48.492;9.184;2022-09-03T20:51:42;6.40;;;1.50;;
1296;SDS011;641;48.492;9.184;2022-09-03T20:57:23;6.27;;;1.50;;
1296;SDS011;641;48.492;9.184;2022-09-03T21:05:39;9.90;;;4.60;;
1296;SDS011;641;48.492;9.184;2022-09-03T21:16:08;9.40;;;2.80;;
1296;SDS011;641;48.492;9.184;2022-09-03T21:24:34;9.93;;;2.60;;
1296;SDS011;641;48.492;9.184;2022-09-03T21:27:15;8.00;;;2.90;;
1296;SDS011;641;48.492;9.184;2022-09-03T21:32:23;11.23;;;3.60;;
1296;SDS011;641;48.492;9.184;2022-09-03T21:35:26;11.43;;;3.53;;
1296;SDS011;641;48.492;9.184;2022-09-03T21:37:57;11.13;;;3.27;;
1296;SDS011;641;48.492;9.184;2022-09-03T21:40:27;10.57;;;3.70;;
1296;SDS011;641;48.492;9.184;2022-09-03T21:43:00;8.47;;;3.03;;
1296;SDS011;641;48.492;9.184;2022-09-03T21:45:50;9.47;;;3.23;;
1296;SDS011;641;48.492;9.184;2022-09-03T21:48:24;8.53;;;2.90;;
1296;SDS011;641;48.492;9.184;2022-09-03T21:50:59;9.57;;;2.93;;
1296;SDS011;641;48.492;9.184;2022-09-03T21:53:32;7.63;;;2.57;;
1296;SDS011;641;48.492;9.184;2022-09-03T22:01:18;7.80;;;2.70;;
1296;SDS011;641;48.492;9.184;2022-09-03T22:04:04;6.70;;;2.00;;
1296;SDS011;641;48.492;9.184;2022-09-03T22:06:34;8.50;;;2.33;;
1296;SDS011;641;48.492;9.184;2022-09-03T22:09:28;7.83;;;2.67;;
1296;SDS011;641;48.492;9.184;2022-09-03T22:12:04;9.40;;;2.40;;
1296;SDS011;641;48.492;9.184;2022-09-03T22:14:43;10.17;;;2.43;;
1296;SDS011;641;48.492;9.184;2022-09-03T22:17:15;7.40;;;2.53;;
1296;SDS011;641;48.492;9.184;2022-09-03T22:19:47;8.73;;;2.80;;
1296;SDS011;641;48.492;9.184;2022-09-03T22:22:20;8.63;;;3.10;;
1296;SDS011;641;48.492;9.184;2022-09-03T22:25:08;8.60;;;3.10;;
1296;SDS011;641;48.492;9.184;2022-09-03T22:30:21;9.60;;;2.90;;
1296;SDS011;641;48.492;9.184;2022-09-03T22:43:40;12.53;;;3.87;;
1296;SDS011;641;48.492;9.184;2022-09-03T22:46:11;12.70;;;4.10;;
1296;SDS011;641;48.492;9.184;2022-09-03T22:51:20;9.50;;;3.57;;
1296;SDS011;641;48.492;9.184;2022-09-03T22:56:30;10.67;;;3.40;;
1296;SDS011;641;48.492;9.184;2022-09-03T22:59:06;12.13;;;3.63;;
1296;SDS011;641;48.492;9.184;2022-09-03T23:01:47;9.40;;;3.90;;